sensor_id;sensor_type;location;lat;lon;timestamp;pressure;altitude;pressure_sealevel;temperature;humidity
47080;BME280;33067;49.296;14.470;2023-10-19T00:01:58;95856.79;;;7.07;42.93
47080;BME280;33067;49.296;14.470;2023-10-19T00:04:24;95856.59;;;7.07;43.03
47080;BME280;33067;49.296;14.470;2023-10-19T00:06:49;95850.48;;;6.86;43.05
47080;BME280;33067;49.296;14.470;2023-10-19T00:09:14;95846.34;;;7.13;42.95
47080;BME280;33067;49.296;14.470;2023-10-19T00:11:40;95845.25;;;7.02;43.26
47080;BME280;33067;49.296;14.470;2023-10-19T00:14:05;95841.41;;;7.11;43.41
47080;BME280;33067;49.296;14.470;2023-10-19T00:16:31;95833.95;;;7.06;43.58
47080;BME280;33067;49.296;14.470;2023-10-19T00:18:56;95833.70;;;7.12;43.58
47080;BME280;33067;49.296;14.470;2023-10-19T00:21:21;95831.66;;;7.18;43.68
47080;BME280;33067;49.296;14.470;2023-10-19T00:23:47;95827.88;;;7.17;43.92
47080;BME280;33067;49.296;14.470;2023-10-19T00:26:12;95824.91;;;7.19;44.21
47080;BME280;33067;49.296;14.470;2023-10-19T00:28:37;95820.35;;;7.22;44.55
47080;BME280;33067;49.296;14.470;2023-10-19T00:31:03;95813.84;;;7.53;44.63
47080;BME280;33067;49.296;14.470;2023-10-19T00:33:29;95803.32;;;7.37;44.54
47080;BME280;33067;49.296;14.470;2023-10-19T00:35:54;95791.32;;;7.71;43.31
47080;BME280;33067;49.296;14.470;2023-10-19T00:38:20;95779.48;;;7.01;43.87
47080;BME280;33067;49.296;14.470;2023-10-19T00:40:50;95780.98;;;6.44;45.25
47080;BME280;33067;49.296;14.470;2023-10-19T00:43:12;95781.74;;;6.64;45.91
47080;BME280;33067;49.296;14.470;2023-10-19T00:45:36;95778.59;;;6.23;47.46
47080;BME280;33067;49.296;14.470;2023-10-19T00:48:01;95778.43;;;6.16;48.35
47080;BME280;33067;49.296;14.470;2023-10-19T00:50:27;95775.70;;;6.55;47.89
47080;BME280;33067;49.296;14.470;2023-10-19T00:52:53;95774.96;;;6.89;47.54
47080;BME280;33067;49.296;14.470;2023-10-19T00:55:19;95773.74;;;7.14;47.04
47080;BME280;33067;49.296;14.470;2023-10-19T00:57:44;95776.07;;;7.26;47.01
47080;BME280;33067;49.296;14.470;2023-10-19T01:00:11;95771.40;;;7.09;46.93
47080;BME280;33067;49.296;14.470;2023-10-19T01:02:35;95766.26;;;7.52;46.63
47080;BME280;33067;49.296;14.470;2023-10-19T01:05:01;95755.44;;;7.29;46.95
47080;BME280;33067;49.296;14.470;2023-10-19T01:07:28;95749.10;;;7.03;47.35
47080;BME280;33067;49.296;14.470;2023-10-19T01:09:52;95745.51;;;7.29;47.09
47080;BME280;33067;49.296;14.470;2023-10-19T01:12:17;95756.33;;;6.85;47.92
47080;BME280;33067;49.296;14.470;2023-10-19T01:14:43;95762.39;;;7.27;47.24
47080;BME280;33067;49.296;14.470;2023-10-19T01:17:09;95766.50;;;7.16;47.07
47080;BME280;33067;49.296;14.470;2023-10-19T01:19:34;95758.25;;;7.93;46.03
47080;BME280;33067;49.296;14.470;2023-10-19T01:21:59;95760.79;;;7.37;46.15
47080;BME280;33067;49.296;14.470;2023-10-19T01:24:25;95755.50;;;7.83;45.61
47080;BME280;33067;49.296;14.470;2023-10-19T01:26:50;95753.73;;;7.54;46.15
47080;BME280;33067;49.296;14.470;2023-10-19T01:29:15;95762.90;;;7.61;46.39
47080;BME280;33067;49.296;14.470;2023-10-19T01:31:41;95752.06;;;7.70;45.78
47080;BME280;33067;49.296;14.470;2023-10-19T01:34:07;95740.77;;;8.47;45.00
47080;BME280;33067;49.296;14.470;2023-10-19T01:36:33;95758.26;;;7.68;45.97
47080;BME280;33067;49.296;14.470;2023-10-19T01:38:58;95759.32;;;7.84;45.74
47080;BME280;33067;49.296;14.470;2023-10-19T01:41:25;95743.62;;;8.02;45.39
47080;BME280;33067;49.296;14.470;2023-10-19T01:43:51;95734.23;;;8.32;44.75
47080;BME280;33067;49.296;14.470;2023-10-19T01:46:16;95742.07;;;8.22;45.10
47080;BME280;33067;49.296;14.470;2023-10-19T01:48:42;95744.03;;;8.34;45.00
47080;BME280;33067;49.296;14.470;2023-10-19T01:51:07;95728.97;;;8.52;44.39
47080;BME280;33067;49.296;14.470;2023-10-19T01:53:32;95742.83;;;8.15;45.19
47080;BME280;33067;49.296;14.470;2023-10-19T01:55:57;95746.91;;;8.12;45.30
47080;BME280;33067;49.296;14.470;2023-10-19T01:58:22;95741.00;;;8.41;44.77
47080;BME280;33067;49.296;14.470;2023-10-19T02:00:48;95746.18;;;8.63;44.30
47080;BME280;33067;49.296;14.470;2023-10-19T02:03:13;95744.87;;;8.41;44.48
47080;BME280;33067;49.296;14.470;2023-10-19T02:05:39;95723.27;;;8.52;44.16
47080;BME280;33067;49.296;14.470;2023-10-19T02:08:05;95707.23;;;8.44;44.01
47080;BME280;33067;49.296;14.470;2023-10-19T02:13:00;95712.11;;;6.10;45.35
47080;BME280;33067;49.296;14.470;2023-10-19T02:15:25;95690.43;;;9.11;43.00
47080;BME280;33067;49.296;14.470;2023-10-19T02:17:50;95686.60;;;9.01;44.27
47080;BME280;33067;49.296;14.470;2023-10-19T02:20:16;95686.62;;;8.50;44.85
47080;BME280;33067;49.296;14.470;2023-10-19T02:22:41;95685.67;;;8.46;44.18
47080;BME280;33067;49.296;14.470;2023-10-19T02:25:07;95690.58;;;8.08;44.92
47080;BME280;33067;49.296;14.470;2023-10-19T02:27:32;95700.08;;;8.55;44.49
47080;BME280;33067;49.296;14.470;2023-10-19T02:29:58;95700.16;;;8.51;45.32
47080;BME280;33067;49.296;14.470;2023-10-19T02:32:23;95690.52;;;8.45;45.13
47080;BME280;33067;49.296;14.470;2023-10-19T02:34:49;95684.23;;;8.89;44.94
47080;BME280;33067;49.296;14.470;2023-10-19T02:37:14;95672.45;;;8.63;44.79
47080;BME280;33067;49.296;14.470;2023-10-19T02:39:39;95663.83;;;9.15;44.42
47080;BME280;33067;49.296;14.470;2023-10-19T02:42:05;95667.16;;;8.58;45.22
47080;BME280;33067;49.296;14.470;2023-10-19T02:44:30;95670.97;;;8.57;45.23
47080;BME280;33067;49.296;14.470;2023-10-19T02:46:56;95674.22;;;8.76;44.87
47080;BME280;33067;49.296;14.470;2023-10-19T02:49:22;95669.29;;;8.75;44.79
47080;BME280;33067;49.296;14.470;2023-10-19T02:51:48;95672.09;;;8.86;44.45
47080;BME280;33067;49.296;14.470;2023-10-19T02:54:13;95673.19;;;8.97;44.26
47080;BME280;33067;49.296;14.470;2023-10-19T02:56:37;95670.31;;;9.00;44.19
47080;BME280;33067;49.296;14.470;2023-10-19T02:59:03;95664.09;;;9.17;43.84
47080;BME280;33067;49.296;14.470;2023-10-19T03:01:28;95658.07;;;9.24;43.53
47080;BME280;33067;49.296;14.470;2023-10-19T03:03:55;95663.97;;;8.90;44.80
47080;BME280;33067;49.296;14.470;2023-10-19T03:06:21;95645.47;;;9.03;44.33
47080;BME280;33067;49.296;14.470;2023-10-19T03:08:45;95628.90;;;8.88;45.11
47080;BME280;33067;49.296;14.470;2023-10-19T03:11:10;95637.85;;;8.56;45.34
47080;BME280;33067;49.296;14.470;2023-10-19T03:13:36;95642.49;;;8.66;45.82
47080;BME280;33067;49.296;14.470;2023-10-19T03:16:02;95640.02;;;8.57;45.27
47080;BME280;33067;49.296;14.470;2023-10-19T03:18:28;95638.60;;;8.83;44.85
47080;BME280;33067;49.296;14.470;2023-10-19T03:20:54;95649.15;;;9.12;44.79
47080;BME280;33067;49.296;14.470;2023-10-19T03:23:19;95655.21;;;8.83;45.08
47080;BME280;33067;49.296;14.470;2023-10-19T03:25:45;95656.13;;;8.70;44.91
47080;BME280;33067;49.296;14.470;2023-10-19T03:28:09;95659.14;;;9.18;44.33
47080;BME280;33067;49.296;14.470;2023-10-19T03:30:35;95659.13;;;9.23;44.09
47080;BME280;33067;49.296;14.470;2023-10-19T03:33:00;95653.59;;;9.04;44.25
47080;BME280;33067;49.296;14.470;2023-10-19T03:35:26;95640.75;;;9.06;44.18
47080;BME280;33067;49.296;14.470;2023-10-19T03:37:52;95627.01;;;8.86;44.46
47080;BME280;33067;49.296;14.470;2023-10-19T03:40:17;95619.89;;;8.79;44.84
47080;BME280;33067;49.296;14.470;2023-10-19T03:42:43;95612.98;;;8.91;45.41
47080;BME280;33067;49.296;14.470;2023-10-19T03:45:09;95612.55;;;8.88;45.21
47080;BME280;33067;49.296;14.470;2023-10-19T03:47:34;95614.39;;;8.50;45.66
47080;BME280;33067;49.296;14.470;2023-10-19T03:50:00;95609.65;;;9.08;45.05
47080;BME280;33067;49.296;14.470;2023-10-19T03:52:24;95596.30;;;9.28;45.60
47080;BME280;33067;49.296;14.470;2023-10-19T03:54:49;95591.11;;;9.05;45.84
47080;BME280;33067;49.296;14.470;2023-10-19T03:57:16;95587.83;;;8.30;46.48
47080;BME280;33067;49.296;14.470;2023-10-19T03:59:41;95585.74;;;8.42;47.25
47080;BME280;33067;49.296;14.470;2023-10-19T04:02:07;95585.79;;;8.30;47.19
47080;BME280;33067;49.296;14.470;2023-10-19T04:04:32;95584.50;;;8.75;46.96
47080;BME280;33067;49.296;14.470;2023-10-19T04:06:57;95572.44;;;8.65;46.48
47080;BME280;33067;49.296;14.470;2023-10-19T04:09:22;95565.88;;;8.39;47.38
47080;BME280;33067;49.296;14.470;2023-10-19T04:11:48;95571.04;;;8.28;47.73
47080;BME280;33067;49.296;14.470;2023-10-19T04:14:14;95571.06;;;8.74;46.86
47080;BME280;33067;49.296;14.470;2023-10-19T04:16:39;95571.14;;;8.46;47.54
47080;BME280;33067;49.296;14.470;2023-10-19T04:19:04;95568.99;;;8.38;47.46
47080;BME280;33067;49.296;14.470;2023-10-19T04:21:30;95563.34;;;8.25;47.83
47080;BME280;33067;49.296;14.470;2023-10-19T04:23:55;95559.65;;;8.46;47.51
47080;BME280;33067;49.296;14.470;2023-10-19T04:26:20;95555.47;;;8.66;47.45
47080;BME280;33067;49.296;14.470;2023-10-19T04:28:46;95548.97;;;8.66;47.25
47080;BME280;33067;49.296;14.470;2023-10-19T04:31:12;95546.79;;;8.96;46.81
47080;BME280;33067;49.296;14.470;2023-10-19T04:33:36;95542.55;;;8.78;46.97
47080;BME280;33067;49.296;14.470;2023-10-19T04:36:02;95537.73;;;8.46;47.16
47080;BME280;33067;49.296;14.470;2023-10-19T04:38:28;95537.02;;;8.73;47.05
47080;BME280;33067;49.296;14.470;2023-10-19T04:40:53;95531.64;;;9.13;46.83
47080;BME280;33067;49.296;14.470;2023-10-19T04:43:18;95528.75;;;8.96;46.65
47080;BME280;33067;49.296;14.470;2023-10-19T04:45:44;95531.71;;;8.75;47.21
47080;BME280;33067;49.296;14.470;2023-10-19T04:48:09;95529.96;;;8.76;46.83
47080;BME280;33067;49.296;14.470;2023-10-19T04:50:34;95524.79;;;9.36;46.34
47080;BME280;33067;49.296;14.470;2023-10-19T04:53:00;95519.94;;;9.30;46.46
47080;BME280;33067;49.296;14.470;2023-10-19T04:55:25;95516.51;;;8.89;47.22
47080;BME280;33067;49.296;14.470;2023-10-19T04:57:51;95513.74;;;8.92;47.31
47080;BME280;33067;49.296;14.470;2023-10-19T05:00:17;95513.10;;;8.64;47.63
47080;BME280;33067;49.296;14.470;2023-10-19T05:02:42;95511.63;;;8.88;47.52
47080;BME280;33067;49.296;14.470;2023-10-19T05:05:08;95508.33;;;8.37;48.25
47080;BME280;33067;49.296;14.470;2023-10-19T05:07:33;95510.00;;;8.55;47.82
47080;BME280;33067;49.296;14.470;2023-10-19T05:09:58;95509.94;;;8.68;48.05
47080;BME280;33067;49.296;14.470;2023-10-19T05:12:23;95505.95;;;8.46;47.50
47080;BME280;33067;49.296;14.470;2023-10-19T05:14:48;95507.67;;;8.51;47.57
47080;BME280;33067;49.296;14.470;2023-10-19T05:17:14;95504.37;;;8.96;47.05
47080;BME280;33067;49.296;14.470;2023-10-19T05:19:40;95507.38;;;8.98;46.98
47080;BME280;33067;49.296;14.470;2023-10-19T05:22:06;95515.27;;;8.59;47.55
47080;BME280;33067;49.296;14.470;2023-10-19T05:24:31;95511.22;;;8.82;47.24
47080;BME280;33067;49.296;14.470;2023-10-19T05:26:56;95514.23;;;8.97;46.87
47080;BME280;33067;49.296;14.470;2023-10-19T05:29:22;95516.67;;;9.01;46.80
47080;BME280;33067;49.296;14.470;2023-10-19T05:31:47;95516.49;;;9.65;46.73
47080;BME280;33067;49.296;14.470;2023-10-19T05:34:12;95518.08;;;9.22;46.39
47080;BME280;33067;49.296;14.470;2023-10-19T05:36:37;95521.60;;;9.07;46.71
47080;BME280;33067;49.296;14.470;2023-10-19T05:39:03;95519.10;;;9.17;46.23
47080;BME280;33067;49.296;14.470;2023-10-19T05:41:28;95516.98;;;9.08;46.94
47080;BME280;33067;49.296;14.470;2023-10-19T05:43:53;95514.29;;;8.94;46.70
47080;BME280;33067;49.296;14.470;2023-10-19T05:46:19;95511.11;;;9.44;46.21
47080;BME280;33067;49.296;14.470;2023-10-19T05:48:44;95517.50;;;9.32;46.32
47080;BME280;33067;49.296;14.470;2023-10-19T05:51:09;95514.06;;;9.14;46.74
47080;BME280;33067;49.296;14.470;2023-10-19T05:53:35;95515.80;;;9.04;47.22
47080;BME280;33067;49.296;14.470;2023-10-19T05:56:01;95507.26;;;9.07;47.04
47080;BME280;33067;49.296;14.470;2023-10-19T05:58:26;95509.51;;;8.31;46.74
47080;BME280;33067;49.296;14.470;2023-10-19T06:00:52;95500.79;;;9.54;46.41
47080;BME280;33067;49.296;14.470;2023-10-19T06:03:17;95500.96;;;9.28;46.84
47080;BME280;33067;49.296;14.470;2023-10-19T06:05:43;95508.49;;;8.91;47.44
47080;BME280;33067;49.296;14.470;2023-10-19T06:08:09;95516.15;;;9.10;47.15
47080;BME280;33067;49.296;14.470;2023-10-19T06:10:35;95505.71;;;9.21;47.14
47080;BME280;33067;49.296;14.470;2023-10-19T06:13:00;95496.90;;;9.16;47.89
47080;BME280;33067;49.296;14.470;2023-10-19T06:15:26;95496.31;;;9.06;48.33
47080;BME280;33067;49.296;14.470;2023-10-19T06:17:51;95498.31;;;8.55;49.04
47080;BME280;33067;49.296;14.470;2023-10-19T06:20:17;95495.15;;;9.48;48.28
47080;BME280;33067;49.296;14.470;2023-10-19T06:22:42;95501.50;;;9.26;48.10
47080;BME280;33067;49.296;14.470;2023-10-19T06:25:08;95497.55;;;8.74;48.88
47080;BME280;33067;49.296;14.470;2023-10-19T06:27:33;95498.61;;;9.26;48.11
47080;BME280;33067;49.296;14.470;2023-10-19T06:29:58;95491.83;;;9.43;47.76
47080;BME280;33067;49.296;14.470;2023-10-19T06:32:23;95479.46;;;9.17;48.33
47080;BME280;33067;49.296;14.470;2023-10-19T06:34:49;95472.52;;;9.04;49.36
47080;BME280;33067;49.296;14.470;2023-10-19T06:37:15;95470.41;;;8.60;50.24
47080;BME280;33067;49.296;14.470;2023-10-19T06:39:40;95472.95;;;8.34;51.46
47080;BME280;33067;49.296;14.470;2023-10-19T06:42:06;95465.89;;;8.62;50.53
47080;BME280;33067;49.296;14.470;2023-10-19T06:44:31;95464.20;;;8.61;50.76
47080;BME280;33067;49.296;14.470;2023-10-19T06:46:56;95462.95;;;9.05;50.08
47080;BME280;33067;49.296;14.470;2023-10-19T06:49:21;95470.01;;;9.00;49.98
47080;BME280;33067;49.296;14.470;2023-10-19T06:51:47;95468.34;;;8.73;49.81
47080;BME280;33067;49.296;14.470;2023-10-19T06:54:13;95467.57;;;9.17;48.84
47080;BME280;33067;49.296;14.470;2023-10-19T06:56:39;95466.30;;;9.29;48.78
47080;BME280;33067;49.296;14.470;2023-10-19T06:59:04;95468.51;;;9.39;48.96
47080;BME280;33067;49.296;14.470;2023-10-19T07:01:30;95470.88;;;9.29;49.31
47080;BME280;33067;49.296;14.470;2023-10-19T07:03:55;95470.09;;;8.66;50.59
47080;BME280;33067;49.296;14.470;2023-10-19T07:06:21;95466.13;;;8.67;50.37
47080;BME280;33067;49.296;14.470;2023-10-19T07:08:46;95451.73;;;8.34;51.57
47080;BME280;33067;49.296;14.470;2023-10-19T07:11:12;95465.81;;;7.85;52.30
47080;BME280;33067;49.296;14.470;2023-10-19T07:13:37;95460.47;;;8.31;51.56
47080;BME280;33067;49.296;14.470;2023-10-19T07:16:03;95455.57;;;7.71;52.76
47080;BME280;33067;49.296;14.470;2023-10-19T07:18:28;95461.55;;;8.06;52.32
47080;BME280;33067;49.296;14.470;2023-10-19T07:20:53;95465.52;;;8.76;51.04
47080;BME280;33067;49.296;14.470;2023-10-19T07:23:18;95472.57;;;9.00;50.31
47080;BME280;33067;49.296;14.470;2023-10-19T07:25:44;95474.12;;;8.21;52.23
47080;BME280;33067;49.296;14.470;2023-10-19T07:28:09;95472.05;;;8.18;51.97
47080;BME280;33067;49.296;14.470;2023-10-19T07:30:34;95471.13;;;8.82;50.90
47080;BME280;33067;49.296;14.470;2023-10-19T07:33:00;95467.66;;;9.44;49.33
47080;BME280;33067;49.296;14.470;2023-10-19T07:35:27;95461.05;;;9.24;49.53
47080;BME280;33067;49.296;14.470;2023-10-19T07:37:52;95455.85;;;9.09;49.82
47080;BME280;33067;49.296;14.470;2023-10-19T07:40:17;95456.56;;;9.11;49.95
47080;BME280;33067;49.296;14.470;2023-10-19T07:42:42;95442.84;;;9.37;49.43
47080;BME280;33067;49.296;14.470;2023-10-19T07:45:08;95426.84;;;9.11;51.34
47080;BME280;33067;49.296;14.470;2023-10-19T07:47:33;95453.12;;;8.99;51.52
47080;BME280;33067;49.296;14.470;2023-10-19T07:49:59;95432.50;;;9.55;49.54
47080;BME280;33067;49.296;14.470;2023-10-19T07:52:24;95429.84;;;9.40;49.74
47080;BME280;33067;49.296;14.470;2023-10-19T07:54:49;95437.14;;;9.65;49.21
47080;BME280;33067;49.296;14.470;2023-10-19T07:57:14;95415.98;;;9.64;49.46
47080;BME280;33067;49.296;14.470;2023-10-19T07:59:40;95427.25;;;9.42;50.23
47080;BME280;33067;49.296;14.470;2023-10-19T08:02:06;95425.58;;;9.56;49.43
47080;BME280;33067;49.296;14.470;2023-10-19T08:04:31;95432.21;;;10.02;48.39
47080;BME280;33067;49.296;14.470;2023-10-19T08:06:56;95426.28;;;9.81;48.72
47080;BME280;33067;49.296;14.470;2023-10-19T08:09:22;95423.00;;;9.27;50.34
47080;BME280;33067;49.296;14.470;2023-10-19T08:11:47;95423.54;;;9.94;49.21
47080;BME280;33067;49.296;14.470;2023-10-19T08:14:13;95420.98;;;9.96;49.36
47080;BME280;33067;49.296;14.470;2023-10-19T08:16:38;95413.29;;;9.36;50.36
47080;BME280;33067;49.296;14.470;2023-10-19T08:19:03;95415.89;;;9.80;49.42
47080;BME280;33067;49.296;14.470;2023-10-19T08:21:28;95421.85;;;10.50;48.21
47080;BME280;33067;49.296;14.470;2023-10-19T08:23:54;95417.36;;;10.16;48.66
47080;BME280;33067;49.296;14.470;2023-10-19T08:26:19;95410.62;;;10.23;49.06
47080;BME280;33067;49.296;14.470;2023-10-19T08:28:45;95399.99;;;10.14;49.25
47080;BME280;33067;49.296;14.470;2023-10-19T08:31:10;95404.55;;;9.86;49.56
47080;BME280;33067;49.296;14.470;2023-10-19T08:33:36;95411.07;;;9.11;50.85
47080;BME280;33067;49.296;14.470;2023-10-19T08:36:02;95406.99;;;10.09;49.76
47080;BME280;33067;49.296;14.470;2023-10-19T08:38:27;95411.81;;;9.48;50.28
47080;BME280;33067;49.296;14.470;2023-10-19T08:40:53;95420.74;;;10.15;49.07
47080;BME280;33067;49.296;14.470;2023-10-19T08:43:18;95415.59;;;10.11;48.66
47080;BME280;33067;49.296;14.470;2023-10-19T08:45:44;95405.69;;;10.17;49.42
47080;BME280;33067;49.296;14.470;2023-10-19T08:48:09;95406.52;;;10.13;49.20
47080;BME280;33067;49.296;14.470;2023-10-19T08:50:35;95411.38;;;10.10;49.26
47080;BME280;33067;49.296;14.470;2023-10-19T08:53:02;95409.01;;;10.41;48.07
47080;BME280;33067;49.296;14.470;2023-10-19T08:55:26;95404.77;;;10.57;48.50
47080;BME280;33067;49.296;14.470;2023-10-19T08:57:52;95409.13;;;10.97;47.24
47080;BME280;33067;49.296;14.470;2023-10-19T09:00:17;95418.20;;;10.90;47.03
47080;BME280;33067;49.296;14.470;2023-10-19T09:02:41;95414.18;;;11.37;46.77
47080;BME280;33067;49.296;14.470;2023-10-19T09:05:07;95411.20;;;10.66;47.41
47080;BME280;33067;49.296;14.470;2023-10-19T09:07:32;95414.17;;;11.21;47.02
47080;BME280;33067;49.296;14.470;2023-10-19T09:09:57;95422.42;;;11.70;45.88
47080;BME280;33067;49.296;14.470;2023-10-19T09:12:23;95424.73;;;11.95;45.53
47080;BME280;33067;49.296;14.470;2023-10-19T09:14:48;95422.57;;;12.30;45.32
47080;BME280;33067;49.296;14.470;2023-10-19T09:17:14;95416.62;;;11.92;45.37
47080;BME280;33067;49.296;14.470;2023-10-19T09:19:41;95417.29;;;11.81;45.87
47080;BME280;33067;49.296;14.470;2023-10-19T09:22:04;95416.11;;;12.07;44.98
47080;BME280;33067;49.296;14.470;2023-10-19T09:24:29;95415.70;;;12.16;44.98
47080;BME280;33067;49.296;14.470;2023-10-19T09:26:54;95410.66;;;12.17;45.24
47080;BME280;33067;49.296;14.470;2023-10-19T09:29:20;95408.58;;;11.81;45.71
47080;BME280;33067;49.296;14.470;2023-10-19T09:31:47;95404.32;;;12.02;45.49
47080;BME280;33067;49.296;14.470;2023-10-19T09:34:11;95405.61;;;12.12;45.70
47080;BME280;33067;49.296;14.470;2023-10-19T09:36:37;95403.04;;;12.09;45.47
47080;BME280;33067;49.296;14.470;2023-10-19T09:39:02;95406.21;;;12.19;45.12
47080;BME280;33067;49.296;14.470;2023-10-19T09:41:28;95402.18;;;12.25;44.72
47080;BME280;33067;49.296;14.470;2023-10-19T09:43:53;95395.20;;;12.58;44.69
47080;BME280;33067;49.296;14.470;2023-10-19T09:46:22;95392.78;;;12.57;44.51
47080;BME280;33067;49.296;14.470;2023-10-19T09:48:45;95390.25;;;12.46;44.16
47080;BME280;33067;49.296;14.470;2023-10-19T09:51:09;95394.04;;;12.41;44.20
47080;BME280;33067;49.296;14.470;2023-10-19T09:53:35;95395.88;;;12.46;44.22
47080;BME280;33067;49.296;14.470;2023-10-19T09:56:00;95395.73;;;12.11;44.81
47080;BME280;33067;49.296;14.470;2023-10-19T09:58:27;95397.97;;;12.31;44.87
47080;BME280;33067;49.296;14.470;2023-10-19T10:00:50;95400.58;;;12.90;44.02
47080;BME280;33067;49.296;14.470;2023-10-19T10:05:47;95391.12;;;12.77;43.57
47080;BME280;33067;49.296;14.470;2023-10-19T10:10:32;95385.06;;;12.79;44.24
47080;BME280;33067;49.296;14.470;2023-10-19T10:17:50;95367.41;;;13.40;43.34
47080;BME280;33067;49.296;14.470;2023-10-19T10:20:30;95361.85;;;13.30;43.22
47080;BME280;33067;49.296;14.470;2023-10-19T10:22:39;95361.40;;;13.86;42.83
47080;BME280;33067;49.296;14.470;2023-10-19T10:25:06;95359.87;;;14.05;41.94
47080;BME280;33067;49.296;14.470;2023-10-19T10:27:31;95350.38;;;14.02;42.34
47080;BME280;33067;49.296;14.470;2023-10-19T10:29:57;95351.78;;;14.04;41.71
47080;BME280;33067;49.296;14.470;2023-10-19T10:34:47;95340.35;;;14.27;41.52
47080;BME280;33067;49.296;14.470;2023-10-19T10:37:13;95343.56;;;14.59;40.54
47080;BME280;33067;49.296;14.470;2023-10-19T10:39:39;95333.38;;;13.81;41.96
47080;BME280;33067;49.296;14.470;2023-10-19T10:42:04;95323.78;;;14.03;41.73
47080;BME280;33067;49.296;14.470;2023-10-19T10:44:37;95314.36;;;14.22;41.54
47080;BME280;33067;49.296;14.470;2023-10-19T10:46:55;95311.36;;;14.50;41.51
47080;BME280;33067;49.296;14.470;2023-10-19T10:49:20;95303.79;;;14.43;41.52
47080;BME280;33067;49.296;14.470;2023-10-19T10:51:46;95298.36;;;13.59;42.51
47080;BME280;33067;49.296;14.470;2023-10-19T10:54:11;95296.24;;;14.26;41.92
47080;BME280;33067;49.296;14.470;2023-10-19T10:56:40;95284.27;;;14.56;41.52
47080;BME280;33067;49.296;14.470;2023-10-19T10:59:12;95283.37;;;14.97;41.11
47080;BME280;33067;49.296;14.470;2023-10-19T11:01:29;95283.12;;;15.14;41.29
47080;BME280;33067;49.296;14.470;2023-10-19T11:04:05;95281.45;;;15.05;41.35
47080;BME280;33067;49.296;14.470;2023-10-19T11:06:19;95281.46;;;14.77;41.63
47080;BME280;33067;49.296;14.470;2023-10-19T11:08:45;95288.44;;;15.01;41.05
47080;BME280;33067;49.296;14.470;2023-10-19T11:11:10;95289.47;;;14.77;40.73
47080;BME280;33067;49.296;14.470;2023-10-19T11:13:36;95290.85;;;15.18;40.70
47080;BME280;33067;49.296;14.470;2023-10-19T11:16:05;95287.31;;;14.89;40.75
47080;BME280;33067;49.296;14.470;2023-10-19T11:18:28;95285.43;;;15.07;41.06
47080;BME280;33067;49.296;14.470;2023-10-19T11:20:54;95280.59;;;15.46;40.42
47080;BME280;33067;49.296;14.470;2023-10-19T11:23:18;95275.72;;;15.15;40.71
47080;BME280;33067;49.296;14.470;2023-10-19T11:25:43;95271.09;;;14.92;40.63
47080;BME280;33067;49.296;14.470;2023-10-19T11:28:16;95272.73;;;15.03;40.56
47080;BME280;33067;49.296;14.470;2023-10-19T11:30:34;95276.91;;;15.17;40.27
47080;BME280;33067;49.296;14.470;2023-10-19T11:33:01;95281.71;;;14.99;40.44
47080;BME280;33067;49.296;14.470;2023-10-19T11:35:27;95274.52;;;15.13;39.77
47080;BME280;33067;49.296;14.470;2023-10-19T11:37:52;95263.15;;;15.10;40.10
47080;BME280;33067;49.296;14.470;2023-10-19T11:40:16;95255.57;;;15.24;40.00
47080;BME280;33067;49.296;14.470;2023-10-19T11:42:42;95252.51;;;14.95;40.37
47080;BME280;33067;49.296;14.470;2023-10-19T11:45:07;95256.43;;;15.32;40.15
47080;BME280;33067;49.296;14.470;2023-10-19T11:47:32;95256.82;;;15.14;40.51
47080;BME280;33067;49.296;14.470;2023-10-19T11:49:58;95249.67;;;14.66;41.33
47080;BME280;33067;49.296;14.470;2023-10-19T11:52:24;95254.06;;;14.65;41.44
47080;BME280;33067;49.296;14.470;2023-10-19T11:54:49;95248.89;;;14.75;41.02
47080;BME280;33067;49.296;14.470;2023-10-19T11:57:14;95246.13;;;15.03;40.68
47080;BME280;33067;49.296;14.470;2023-10-19T11:59:41;95248.54;;;14.84;41.32
47080;BME280;33067;49.296;14.470;2023-10-19T12:02:06;95251.22;;;15.12;40.65
47080;BME280;33067;49.296;14.470;2023-10-19T12:04:32;95251.87;;;15.57;40.26
47080;BME280;33067;49.296;14.470;2023-10-19T12:06:57;95248.08;;;15.60;39.95
47080;BME280;33067;49.296;14.470;2023-10-19T12:09:22;95245.29;;;15.49;39.67
47080;BME280;33067;49.296;14.470;2023-10-19T12:11:47;95252.58;;;15.43;40.03
47080;BME280;33067;49.296;14.470;2023-10-19T12:14:13;95249.48;;;15.66;39.73
47080;BME280;33067;49.296;14.470;2023-10-19T12:16:38;95247.88;;;15.65;39.87
47080;BME280;33067;49.296;14.470;2023-10-19T12:19:04;95248.28;;;15.89;39.36
47080;BME280;33067;49.296;14.470;2023-10-19T12:21:30;95239.08;;;15.48;39.52
47080;BME280;33067;49.296;14.470;2023-10-19T12:23:55;95231.98;;;16.04;39.32
47080;BME280;33067;49.296;14.470;2023-10-19T12:26:20;95228.66;;;16.23;38.67
47080;BME280;33067;49.296;14.470;2023-10-19T12:28:46;95231.18;;;16.01;38.60
47080;BME280;33067;49.296;14.470;2023-10-19T12:31:11;95233.73;;;15.80;38.86
47080;BME280;33067;49.296;14.470;2023-10-19T12:33:36;95229.34;;;15.72;39.11
47080;BME280;33067;49.296;14.470;2023-10-19T12:36:01;95229.29;;;15.78;38.84
47080;BME280;33067;49.296;14.470;2023-10-19T12:38:26;95228.97;;;15.81;39.16
47080;BME280;33067;49.296;14.470;2023-10-19T12:40:52;95228.61;;;16.04;38.53
47080;BME280;33067;49.296;14.470;2023-10-19T12:43:18;95225.56;;;15.56;38.56
47080;BME280;33067;49.296;14.470;2023-10-19T12:45:43;95226.15;;;15.97;38.91
47080;BME280;33067;49.296;14.470;2023-10-19T12:48:09;95222.76;;;15.63;38.96
47080;BME280;33067;49.296;14.470;2023-10-19T12:50:34;95220.84;;;15.96;38.69
47080;BME280;33067;49.296;14.470;2023-10-19T12:53:01;95214.92;;;15.69;39.22
47080;BME280;33067;49.296;14.470;2023-10-19T12:55:25;95218.96;;;15.69;39.62
47080;BME280;33067;49.296;14.470;2023-10-19T12:57:52;95222.26;;;15.72;39.32
47080;BME280;33067;49.296;14.470;2023-10-19T13:00:16;95220.28;;;16.21;38.83
47080;BME280;33067;49.296;14.470;2023-10-19T13:02:41;95219.11;;;16.33;38.88